Time;durP1;ratioP1;P1;durP2;ratioP2;P2;SDS_P1;SDS_P2;PMS_P1;PMS_P2;Temp;Humidity;BMP_temperature;BMP_pressure;BME280_temperature;BME280_humidity;BME280_pressure;Samples;Min_cycle;Max_cycle;Signal;HPM_P1;HPM_P2
2023/04/30 00:01:41;;;;;;;6.18;2.58;;;11.20;99.90;;;;;;5174848;27;20046;-53
2023/04/30 00:04:07;;;;;;;7.10;3.13;;;11.20;99.90;;;;;;5173538;27;20060;-54
2023/04/30 00:06:32;;;;;;;5.53;2.50;;;11.20;99.90;;;;;;5127996;27;20034;-56
2023/04/30 00:08:58;;;;;;;7.78;3.33;;;11.10;99.90;;;;;;5161828;27;20430;-56
2023/04/30 00:11:27;;;;;;;8.20;3.10;;;11.00;99.90;;;;;;5148614;27;20057;-55
2023/04/30 00:13:52;;;;;;;5.28;2.50;;;10.90;99.90;;;;;;5173220;27;20441;-53
2023/04/30 00:16:18;;;;;;;6.32;2.72;;;10.80;99.90;;;;;;5173378;27;20034;-55
2023/04/30 00:18:44;;;;;;;7.72;2.95;;;10.80;99.90;;;;;;5173323;27;20030;-52
2023/04/30 00:21:10;;;;;;;6.05;2.70;;;10.80;99.90;;;;;;5173899;27;20034;-54
2023/04/30 00:23:36;;;;;;;5.65;2.65;;;10.70;99.90;;;;;;5173904;27;20048;-56
2023/04/30 00:26:02;;;;;;;5.68;2.78;;;10.70;99.90;;;;;;5146091;27;20046;-55
2023/04/30 00:28:27;;;;;;;6.55;2.95;;;10.70;99.90;;;;;;5161209;27;20042;-56
2023/04/30 00:30:53;;;;;;;7.72;3.08;;;10.70;99.90;;;;;;5173594;27;20030;-54
2023/04/30 00:33:19;;;;;;;6.15;3.17;;;10.70;99.90;;;;;;5172690;27;20141;-55
2023/04/30 00:35:45;;;;;;;6.28;2.92;;;10.70;99.90;;;;;;5172969;27;20030;-52
2023/04/30 00:38:11;;;;;;;6.47;3.00;;;10.70;99.90;;;;;;5172941;27;20113;-55
2023/04/30 00:40:39;;;;;;;7.03;3.10;;;10.70;99.90;;;;;;5173750;27;20113;-50
2023/04/30 00:43:04;;;;;;;8.70;3.75;;;10.70;99.90;;;;;;5172488;27;20070;-52
2023/04/30 00:45:30;;;;;;;10.43;3.50;;;10.70;99.90;;;;;;5172862;27;20077;-54
2023/04/30 00:47:56;;;;;;;8.35;3.60;;;10.60;99.90;;;;;;5138419;27;20039;-51
2023/04/30 00:50:22;;;;;;;10.38;4.22;;;10.60;99.90;;;;;;5174228;27;20178;-54
2023/04/30 00:52:47;;;;;;;10.05;4.03;;;10.50;99.90;;;;;;5172739;27;20035;-52
2023/04/30 00:55:14;;;;;;;7.55;3.95;;;10.40;99.90;;;;;;5172703;27;20057;-56
2023/04/30 00:57:40;;;;;;;8.07;3.97;;;10.40;99.90;;;;;;5172961;27;20061;-55
2023/04/30 01:00:09;;;;;;;9.25;3.80;;;10.30;99.90;;;;;;5173940;27;20078;-55
2023/04/30 01:02:35;;;;;;;10.93;4.20;;;10.30;99.90;;;;;;5171643;27;20088;-51
2023/04/30 01:05:02;;;;;;;14.77;4.78;;;10.20;99.90;;;;;;5172024;27;20099;-54
2023/04/30 01:07:29;;;;;;;8.27;3.95;;;10.20;99.90;;;;;;5162927;27;20507;-52
2023/04/30 01:09:55;;;;;;;9.23;3.72;;;10.10;99.90;;;;;;5173164;27;20038;-53
2023/04/30 01:12:25;;;;;;;10.95;3.85;;;10.10;99.90;;;;;;5172026;27;20038;-54
2023/04/30 01:14:57;;;;;;;9.77;4.00;;;10.00;99.90;;;;;;5172761;27;20129;-52
2023/04/30 01:17:47;;;;;;;9.57;4.38;;;10.00;99.90;;;;;;5171489;27;20042;-55
2023/04/30 01:20:12;;;;;;;12.32;4.38;;;9.90;99.90;;;;;;5172427;27;20034;-53
2023/04/30 01:22:57;;;;;;;8.98;4.07;;;9.90;99.90;;;;;;5170745;27;20030;-53
2023/04/30 01:25:44;;;;;;;10.50;4.43;;;9.80;99.90;;;;;;5171323;27;20049;-55
2023/04/30 01:28:18;;;;;;;14.27;4.50;;;9.80;99.90;;;;;;5172928;27;20030;-52
2023/04/30 01:30:45;;;;;;;12.73;4.55;;;9.70;99.90;;;;;;5171091;27;20045;-55
2023/04/30 01:33:14;;;;;;;11.25;4.47;;;9.70;99.90;;;;;;5172703;27;20038;-52
2023/04/30 01:36:18;;;;;;;13.15;4.78;;;9.80;99.90;;;;;;5148033;27;20039;-51
2023/04/30 01:39:01;;;;;;;11.10;4.82;;;9.70;99.90;;;;;;5067789;28;20090;-51
2023/04/30 01:41:36;;;;;;;11.20;4.40;;;9.60;99.90;;;;;;5156378;27;20120;-54
2023/04/30 01:44:14;;;;;;;11.93;4.43;;;9.60;99.90;;;;;;5172854;27;20275;-52
2023/04/30 01:46:45;;;;;;;14.23;4.53;;;9.60;99.90;;;;;;5170666;27;20041;-55
2023/04/30 01:49:24;;;;;;;11.57;4.10;;;9.50;99.90;;;;;;5170228;27;20487;-54
2023/04/30 01:52:00;;;;;;;10.68;4.40;;;9.50;99.90;;;;;;5168878;27;20041;-53
2023/04/30 01:54:47;;;;;;;8.70;3.95;;;9.40;99.90;;;;;;5171371;27;20121;-52
2023/04/30 01:57:24;;;;;;;13.88;4.38;;;9.30;99.90;;;;;;5171763;27;20107;-54
2023/04/30 01:59:50;;;;;;;10.02;4.65;;;9.30;99.90;;;;;;5171961;27;20034;-55
2023/04/30 02:02:16;;;;;;;12.98;5.43;;;9.20;99.90;;;;;;5169941;27;20082;-55
2023/04/30 02:04:42;;;;;;;15.10;4.97;;;9.10;99.90;;;;;;5170870;27;20046;-57
2023/04/30 02:07:07;;;;;;;12.45;4.90;;;9.10;99.90;;;;;;5172345;27;20465;-56
2023/04/30 02:09:33;;;;;;;10.32;4.53;;;9.10;99.90;;;;;;5171033;27;20030;-53
2023/04/30 02:11:59;;;;;;;11.20;5.13;;;9.00;99.90;;;;;;5138733;27;20034;-53
2023/04/30 02:14:25;;;;;;;9.23;4.00;;;9.00;99.90;;;;;;5169147;27;20473;-51
2023/04/30 02:16:50;;;;;;;11.88;4.35;;;9.00;99.90;;;;;;5121828;27;20050;-53
2023/04/30 02:19:16;;;;;;;13.10;4.68;;;8.90;99.90;;;;;;5167911;27;20469;-54
2023/04/30 02:21:42;;;;;;;10.73;4.32;;;8.90;99.90;;;;;;5171837;27;20366;-53
2023/04/30 02:24:07;;;;;;;10.13;4.40;;;8.80;99.90;;;;;;5169146;27;20026;-56
2023/04/30 02:26:33;;;;;;;10.73;4.35;;;8.80;99.90;;;;;;5170962;27;20426;-55
2023/04/30 02:28:59;;;;;;;12.90;4.53;;;8.80;99.90;;;;;;5170757;27;20034;-55
2023/04/30 02:31:25;;;;;;;11.57;4.75;;;8.70;99.90;;;;;;5172145;27;20487;-56
2023/04/30 02:33:50;;;;;;;13.48;4.30;;;8.70;99.90;;;;;;5171328;27;20061;-52
2023/04/30 02:36:16;;;;;;;11.10;4.43;;;8.60;99.90;;;;;;5171642;27;20050;-55
2023/04/30 02:38:41;;;;;;;12.57;4.47;;;8.60;99.90;;;;;;5171371;27;20116;-52
2023/04/30 02:41:07;;;;;;;11.32;4.35;;;8.60;99.90;;;;;;5171152;27;20035;-53
2023/04/30 02:43:33;;;;;;;13.88;4.40;;;8.60;99.90;;;;;;5174206;27;20488;-52
2023/04/30 02:45:58;;;;;;;11.43;4.40;;;8.60;99.90;;;;;;5176085;27;20041;-54
2023/04/30 02:48:24;;;;;;;13.75;4.63;;;8.50;99.90;;;;;;5174740;27;20493;-55
2023/04/30 02:50:50;;;;;;;15.02;5.03;;;8.50;99.90;;;;;;5175402;27;20461;-53
2023/04/30 02:53:15;;;;;;;12.38;4.35;;;8.50;99.90;;;;;;5174885;27;20048;-54
2023/04/30 02:55:41;;;;;;;10.13;4.68;;;8.40;99.90;;;;;;5174835;27;20492;-57
2023/04/30 02:58:07;;;;;;;11.40;4.50;;;8.30;99.90;;;;;;5176089;27;20541;-57
2023/04/30 03:00:32;;;;;;;12.45;4.15;;;8.30;99.90;;;;;;5141967;27;20046;-54
2023/04/30 03:02:58;;;;;;;9.43;4.85;;;8.30;99.90;;;;;;5146513;27;20043;-54
2023/04/30 03:05:24;;;;;;;11.57;4.60;;;8.20;99.90;;;;;;5163591;27;20042;-56
2023/04/30 03:07:49;;;;;;;9.52;4.80;;;8.20;99.90;;;;;;5158000;27;20034;-54
2023/04/30 03:10:17;;;;;;;11.82;4.78;;;8.20;99.90;;;;;;5177168;27;20034;-51
2023/04/30 03:12:43;;;;;;;11.13;4.78;;;8.10;99.90;;;;;;5176141;27;20485;-55
2023/04/30 03:15:09;;;;;;;14.43;4.93;;;8.10;99.90;;;;;;5173171;27;20041;-54
2023/04/30 03:17:35;;;;;;;16.33;4.75;;;8.00;99.90;;;;;;5175139;27;20134;-53
2023/04/30 03:20:00;;;;;;;13.98;5.22;;;8.10;99.90;;;;;;5174069;27;20066;-57
2023/04/30 03:22:26;;;;;;;14.60;4.72;;;8.00;99.90;;;;;;5174934;27;20038;-54
2023/04/30 03:24:52;;;;;;;12.18;5.15;;;8.00;99.90;;;;;;5173979;27;20063;-53
2023/04/30 03:27:17;;;;;;;13.20;5.70;;;8.00;99.90;;;;;;5175552;27;20117;-57
2023/04/30 03:29:43;;;;;;;10.32;5.25;;;7.90;99.90;;;;;;5174311;27;20061;-50
2023/04/30 03:32:09;;;;;;;12.07;5.78;;;7.90;99.90;;;;;;5175288;27;20026;-56
2023/04/30 03:34:34;;;;;;;15.07;6.32;;;7.90;99.90;;;;;;5173385;27;20057;-58
2023/04/30 03:37:00;;;;;;;13.93;5.97;;;7.90;99.90;;;;;;5127507;27;20035;-51
2023/04/30 03:39:26;;;;;;;9.27;6.00;;;7.80;99.90;;;;;;5164231;27;20404;-53
2023/04/30 03:41:52;;;;;;;10.52;5.07;;;7.70;99.90;;;;;;5174922;27;20489;-55
2023/04/30 03:44:17;;;;;;;11.30;5.47;;;7.70;99.90;;;;;;5173685;27;20044;-55
2023/04/30 03:46:43;;;;;;;9.57;5.50;;;7.70;99.90;;;;;;5174209;27;20034;-53
2023/04/30 03:49:10;;;;;;;10.48;5.25;;;7.60;99.90;;;;;;5174675;27;20392;-49
2023/04/30 03:51:40;;;;;;;10.07;5.20;;;7.60;99.90;;;;;;5174135;27;20435;-53
2023/04/30 03:54:06;;;;;;;15.30;5.90;;;7.70;99.90;;;;;;5173133;27;20566;-57
2023/04/30 03:56:33;;;;;;;10.93;5.25;;;7.50;99.90;;;;;;5173834;27;20030;-56
2023/04/30 03:58:59;;;;;;;12.55;5.25;;;7.50;99.90;;;;;;5172312;27;20039;-56
2023/04/30 04:01:25;;;;;;;11.77;5.80;;;7.40;99.90;;;;;;5172535;27;20035;-54
2023/04/30 04:03:51;;;;;;;10.68;6.00;;;7.40;99.90;;;;;;5169245;27;20067;-55
2023/04/30 04:06:17;;;;;;;10.85;5.88;;;7.40;99.90;;;;;;5173381;27;20034;-54
2023/04/30 04:08:42;;;;;;;15.48;6.03;;;7.30;99.90;;;;;;5172660;27;20095;-56
2023/04/30 04:11:11;;;;;;;12.85;5.90;;;7.30;99.90;;;;;;5172910;27;20423;-55
2023/04/30 04:13:37;;;;;;;11.18;5.78;;;7.30;99.90;;;;;;5172724;27;20030;-47
2023/04/30 04:16:03;;;;;;;11.80;5.97;;;7.30;99.90;;;;;;5173690;27;20038;-56
2023/04/30 04:18:28;;;;;;;11.13;5.75;;;7.30;99.90;;;;;;5171921;27;20086;-54
2023/04/30 04:20:55;;;;;;;11.98;6.53;;;7.30;99.90;;;;;;5172939;27;20386;-50
2023/04/30 04:23:21;;;;;;;13.45;6.40;;;7.20;99.90;;;;;;5172558;27;20480;-54
2023/04/30 04:25:48;;;;;;;16.73;6.03;;;7.20;99.90;;;;;;5173374;27;20035;-51
2023/04/30 04:28:15;;;;;;;13.90;6.82;;;7.20;99.90;;;;;;5164703;27;20031;-53
2023/04/30 04:30:42;;;;;;;14.32;5.93;;;7.20;99.90;;;;;;5153365;27;20117;-56
2023/04/30 04:33:08;;;;;;;12.63;6.00;;;7.10;99.90;;;;;;5140347;27;20139;-53
2023/04/30 04:35:33;;;;;;;12.88;5.93;;;7.00;99.90;;;;;;5172680;27;20041;-53
2023/04/30 04:38:00;;;;;;;16.10;6.45;;;7.10;99.90;;;;;;5171728;27;20045;-53
2023/04/30 04:40:25;;;;;;;11.32;5.65;;;7.00;99.90;;;;;;5172433;27;20038;-53
2023/04/30 04:42:51;;;;;;;12.30;6.57;;;7.00;99.90;;;;;;5173454;27;20046;-53
2023/04/30 04:45:19;;;;;;;12.25;6.18;;;7.10;99.90;;;;;;5172366;27;20049;-54
2023/04/30 04:47:45;;;;;;;12.90;6.45;;;7.00;99.90;;;;;;5169339;27;20091;-53
2023/04/30 04:50:12;;;;;;;13.18;6.57;;;7.10;99.90;;;;;;5171918;27;20026;-53
2023/04/30 04:52:38;;;;;;;13.18;6.15;;;7.00;99.90;;;;;;5171682;27;20514;-55
2023/04/30 04:55:04;;;;;;;9.10;5.87;;;7.00;99.90;;;;;;5133949;27;1082571;-52
2023/04/30 04:57:30;;;;;;;13.95;6.15;;;7.00;99.90;;;;;;5172639;27;20122;-55
2023/04/30 04:59:56;;;;;;;14.00;6.60;;;7.00;99.90;;;;;;5172910;27;20109;-58
2023/04/30 05:02:22;;;;;;;13.20;6.45;;;7.00;99.90;;;;;;5172633;27;20091;-52
2023/04/30 05:04:51;;;;;;;14.15;6.53;;;7.00;99.90;;;;;;5173609;27;20121;-51
2023/04/30 05:07:17;;;;;;;12.90;6.15;;;7.10;99.90;;;;;;5173448;27;20030;-56
2023/04/30 05:09:45;;;;;;;11.25;6.68;;;7.10;99.90;;;;;;5172432;27;20399;-56
2023/04/30 05:12:12;;;;;;;15.05;6.10;;;7.20;99.90;;;;;;5172632;27;20045;-58
2023/04/30 05:14:37;;;;;;;17.35;6.25;;;7.20;99.90;;;;;;5171204;27;20070;-52
2023/04/30 05:17:03;;;;;;;17.10;6.78;;;7.20;99.90;;;;;;5137823;27;21475;-55
2023/04/30 05:19:29;;;;;;;13.40;6.70;;;7.20;99.90;;;;;;5174355;27;20070;-55
2023/04/30 05:21:55;;;;;;;11.55;6.45;;;7.30;99.90;;;;;;5172894;27;20113;-55
2023/04/30 05:24:20;;;;;;;11.60;6.22;;;7.30;99.90;;;;;;5139534;27;20497;-53
2023/04/30 05:26:46;;;;;;;13.25;7.00;;;7.30;99.90;;;;;;5171863;27;20037;-53
2023/04/30 05:29:12;;;;;;;10.55;6.32;;;7.40;99.90;;;;;;5171475;27;20026;-55
2023/04/30 05:31:37;;;;;;;18.15;7.20;;;7.40;99.90;;;;;;5172910;27;20042;-57
2023/04/30 05:34:03;;;;;;;14.43;6.78;;;7.60;99.90;;;;;;5171628;27;20034;-52
2023/04/30 05:36:29;;;;;;;15.20;7.75;;;7.60;99.90;;;;;;5172048;27;20041;-56
2023/04/30 05:38:54;;;;;;;15.10;7.53;;;7.80;99.90;;;;;;5171658;27;20070;-54
2023/04/30 05:41:20;;;;;;;14.80;7.03;;;7.80;99.90;;;;;;5172390;27;20464;-50
2023/04/30 05:43:46;;;;;;;15.05;7.25;;;7.90;99.90;;;;;;5171829;27;20173;-51
2023/04/30 05:46:12;;;;;;;15.45;8.00;;;7.90;99.90;;;;;;5171276;27;20121;-54
2023/04/30 05:48:38;;;;;;;11.05;6.72;;;7.90;99.90;;;;;;5172512;27;20030;-53
2023/04/30 05:51:05;;;;;;;15.43;7.15;;;7.90;99.90;;;;;;5171707;27;20030;-52
2023/04/30 05:53:31;;;;;;;10.73;6.70;;;7.90;99.90;;;;;;5173789;27;20064;-55
2023/04/30 05:55:57;;;;;;;12.30;6.32;;;7.90;99.90;;;;;;5173286;27;20077;-54
2023/04/30 05:58:22;;;;;;;15.18;6.65;;;7.90;99.90;;;;;;5171589;27;20408;-54
2023/04/30 06:00:51;;;;;;;16.52;6.43;;;7.90;99.90;;;;;;5170570;27;20031;-56
2023/04/30 06:03:19;;;;;;;13.85;6.25;;;7.90;99.90;;;;;;5172556;27;20366;-54
2023/04/30 06:05:46;;;;;;;13.23;6.32;;;7.90;99.90;;;;;;5171178;27;20104;-53
2023/04/30 06:08:12;;;;;;;15.93;5.68;;;8.00;99.90;;;;;;5173281;27;20041;-54
2023/04/30 06:10:38;;;;;;;14.80;6.47;;;8.00;99.90;;;;;;5173590;27;20030;-55
2023/04/30 06:13:05;;;;;;;13.18;6.10;;;8.00;99.90;;;;;;5172477;27;20037;-54
2023/04/30 06:15:30;;;;;;;13.13;5.80;;;8.10;99.90;;;;;;5170709;27;20045;-54
2023/04/30 06:17:56;;;;;;;14.93;5.13;;;8.10;99.90;;;;;;5170881;27;20038;-52
2023/04/30 06:20:21;;;;;;;18.15;6.78;;;8.00;99.90;;;;;;5139076;27;20134;-56
2023/04/30 06:22:47;;;;;;;15.30;5.95;;;8.10;99.90;;;;;;5171966;27;20079;-55
2023/04/30 06:25:13;;;;;;;13.95;6.10;;;8.10;99.90;;;;;;5169804;27;20038;-57
2023/04/30 06:27:39;;;;;;;11.35;5.72;;;8.20;99.90;;;;;;5154743;27;20104;-50
2023/04/30 06:30:05;;;;;;;18.77;5.40;;;8.20;99.90;;;;;;5155764;27;20182;-52
2023/04/30 06:32:31;;;;;;;16.83;5.95;;;8.30;99.90;;;;;;5168496;27;20035;-54
2023/04/30 06:34:56;;;;;;;13.77;5.35;;;8.30;99.90;;;;;;5170192;27;20125;-55
2023/04/30 06:37:22;;;;;;;16.90;5.15;;;8.30;99.90;;;;;;5153960;27;20038;-53
2023/04/30 06:39:48;;;;;;;14.55;4.80;;;8.00;99.90;;;;;;5153280;27;20038;-52
2023/04/30 06:42:14;;;;;;;10.90;5.10;;;8.40;99.90;;;;;;5154192;27;20038;-53
2023/04/30 06:44:39;;;;;;;10.82;5.30;;;8.50;99.90;;;;;;5128636;27;20037;-55
2023/04/30 06:47:05;;;;;;;14.93;5.80;;;8.50;99.90;;;;;;5126793;27;20031;-55
2023/04/30 06:49:31;;;;;;;12.05;4.45;;;8.50;99.90;;;;;;5111526;27;20027;-54
2023/04/30 06:51:57;;;;;;;14.35;4.18;;;7.90;99.90;;;;;;5130519;27;20063;-54
2023/04/30 06:54:25;;;;;;;15.48;5.72;;;8.70;99.90;;;;;;5154074;27;20137;-56
2023/04/30 06:56:51;;;;;;;15.57;4.38;;;8.70;99.90;;;;;;5129144;27;20363;-57
2023/04/30 06:59:17;;;;;;;10.15;4.90;;;8.80;99.90;;;;;;5153943;27;20054;-57
2023/04/30 07:01:42;;;;;;;9.73;4.15;;;8.90;99.90;;;;;;5152235;27;20050;-53
2023/04/30 07:04:08;;;;;;;12.77;3.60;;;8.90;99.90;;;;;;5148854;27;20035;-51
2023/04/30 07:06:34;;;;;;;11.63;4.43;;;9.00;99.90;;;;;;5151889;27;20035;-54
2023/04/30 07:08:59;;;;;;;12.70;4.00;;;9.00;99.90;;;;;;5154129;27;20066;-51
2023/04/30 07:11:25;;;;;;;13.55;4.22;;;9.10;99.90;;;;;;5154010;27;20030;-52
2023/04/30 07:13:52;;;;;;;12.35;3.85;;;9.10;99.90;;;;;;5156222;27;20026;-52
2023/04/30 07:16:18;;;;;;;12.88;4.25;;;9.20;99.90;;;;;;5152684;27;20043;-56
2023/04/30 07:18:43;;;;;;;12.73;4.20;;;9.30;99.90;;;;;;5148661;27;20370;-56
2023/04/30 07:21:09;;;;;;;14.18;4.07;;;9.30;99.90;;;;;;5149147;27;20027;-55
2023/04/30 07:23:35;;;;;;;12.25;3.70;;;9.30;99.90;;;;;;5153655;27;20117;-56
2023/04/30 07:26:00;;;;;;;17.17;4.50;;;9.40;99.90;;;;;;5153462;27;20118;-54
2023/04/30 07:28:26;;;;;;;11.57;4.07;;;9.40;99.90;;;;;;5155541;27;20054;-54
2023/04/30 07:30:52;;;;;;;18.00;4.05;;;9.40;99.90;;;;;;5132775;27;20393;-55
2023/04/30 07:33:17;;;;;;;12.70;3.30;;;9.40;99.90;;;;;;5130031;27;20092;-54
2023/04/30 07:35:43;;;;;;;10.77;3.67;;;9.50;99.90;;;;;;5154361;27;20113;-55
2023/04/30 07:38:09;;;;;;;16.35;4.20;;;9.60;99.90;;;;;;5155172;27;20034;-54
2023/04/30 07:40:35;;;;;;;9.93;3.55;;;9.60;99.90;;;;;;5154147;27;20479;-53
2023/04/30 07:43:00;;;;;;;12.05;4.00;;;9.70;99.90;;;;;;5159097;27;20034;-57
2023/04/30 07:45:26;;;;;;;13.05;3.70;;;9.70;99.90;;;;;;5154894;27;20045;-55
2023/04/30 07:47:52;;;;;;;10.25;3.85;;;9.80;99.90;;;;;;5158582;27;20064;-54
2023/04/30 07:50:17;;;;;;;8.38;3.60;;;9.80;99.90;;;;;;5160896;27;20030;-51
2023/04/30 07:52:43;;;;;;;11.85;3.78;;;9.90;99.90;;;;;;5129989;27;20030;-52
2023/04/30 07:55:09;;;;;;;13.07;3.65;;;9.90;99.90;;;;;;5158574;27;20027;-55
2023/04/30 07:57:35;;;;;;;11.63;3.90;;;10.00;99.90;;;;;;5158856;27;20038;-58
2023/04/30 08:00:00;;;;;;;11.80;3.85;;;10.00;99.90;;;;;;5159961;27;20034;-52
2023/04/30 08:02:26;;;;;;;11.23;3.97;;;10.00;99.90;;;;;;5160249;27;20066;-52
2023/04/30 08:04:52;;;;;;;14.20;3.72;;;10.00;99.90;;;;;;5155167;27;20378;-53
2023/04/30 08:07:19;;;;;;;10.68;3.50;;;10.00;99.90;;;;;;5155372;27;20105;-54
2023/04/30 08:09:45;;;;;;;11.73;3.58;;;10.10;99.90;;;;;;5153931;27;20034;-56
2023/04/30 08:12:11;;;;;;;9.05;3.45;;;10.20;99.90;;;;;;5160599;27;20035;-55
2023/04/30 08:14:37;;;;;;;10.27;3.88;;;10.20;99.90;;;;;;5158204;27;20049;-53
2023/04/30 08:17:02;;;;;;;8.10;3.30;;;10.30;99.90;;;;;;5130627;27;20031;-51
2023/04/30 08:19:28;;;;;;;11.55;3.70;;;10.30;99.90;;;;;;5157813;27;20034;-52
2023/04/30 08:21:54;;;;;;;9.18;3.63;;;10.30;99.90;;;;;;5133332;27;20041;-50
2023/04/30 08:24:20;;;;;;;9.15;3.80;;;10.40;99.90;;;;;;5157601;27;20042;-55
2023/04/30 08:26:45;;;;;;;9.15;3.25;;;10.50;99.90;;;;;;5155370;27;20449;-55
2023/04/30 08:29:11;;;;;;;15.32;3.92;;;10.50;99.90;;;;;;5110376;27;20413;-52
2023/04/30 08:31:37;;;;;;;8.60;3.50;;;10.60;99.90;;;;;;5153377;27;20496;-56
2023/04/30 08:34:03;;;;;;;11.45;4.07;;;10.60;99.90;;;;;;5151048;27;20031;-54
2023/04/30 08:36:28;;;;;;;12.45;4.65;;;10.70;99.90;;;;;;5157030;27;20038;-55
2023/04/30 08:38:54;;;;;;;8.65;4.15;;;10.70;99.90;;;;;;5128525;27;20405;-55
2023/04/30 08:41:25;;;;;;;9.07;3.63;;;10.80;99.90;;;;;;5157192;27;20034;-53
2023/04/30 08:43:57;;;;;;;11.57;3.97;;;10.90;99.90;;;;;;5157476;27;20042;-55
2023/04/30 08:46:24;;;;;;;9.43;4.00;;;11.10;99.90;;;;;;5130099;27;20120;-57
2023/04/30 08:48:50;;;;;;;10.65;4.72;;;11.20;99.90;;;;;;5158159;27;20038;-57
2023/04/30 08:51:15;;;;;;;10.30;4.18;;;11.20;99.90;;;;;;5157006;27;20034;-55
2023/04/30 08:53:43;;;;;;;12.82;4.38;;;11.30;99.90;;;;;;5153935;27;20431;-51
2023/04/30 08:56:10;;;;;;;10.07;4.13;;;11.30;99.90;;;;;;5126137;27;20103;-56
2023/04/30 08:58:36;;;;;;;13.75;4.60;;;11.40;99.90;;;;;;5130878;27;20042;-54
2023/04/30 09:01:05;;;;;;;13.45;4.40;;;11.50;99.90;;;;;;5128109;27;20047;-55
2023/04/30 09:03:31;;;;;;;11.60;4.22;;;11.60;99.90;;;;;;5124456;27;20035;-54
2023/04/30 09:05:57;;;;;;;13.18;4.60;;;11.70;99.90;;;;;;5124232;27;20031;-55
2023/04/30 09:08:48;;;;;;;11.15;4.18;;;11.90;99.90;;;;;;5133052;27;20042;-54
2023/04/30 09:11:27;;;;;;;8.98;3.90;;;12.10;99.90;;;;;;5129675;27;20043;-55
2023/04/30 09:13:56;;;;;;;9.10;4.30;;;12.20;99.90;;;;;;5128748;27;20175;-53
2023/04/30 09:16:23;;;;;;;10.82;4.38;;;12.50;99.90;;;;;;5129955;27;20042;-52
2023/04/30 09:18:49;;;;;;;11.75;4.38;;;12.70;99.90;;;;;;5123207;27;20378;-52
2023/04/30 09:21:15;;;;;;;18.10;4.30;;;12.90;99.90;;;;;;5126654;27;20047;-55
2023/04/30 09:23:55;;;;;;;7.45;3.88;;;13.00;99.90;;;;;;5129696;27;20042;-53
2023/04/30 09:26:27;;;;;;;11.20;3.92;;;13.10;99.90;;;;;;5130357;27;20047;-55
2023/04/30 09:28:57;;;;;;;9.57;3.67;;;13.30;99.90;;;;;;5130803;27;20034;-54
2023/04/30 09:31:26;;;;;;;10.88;4.00;;;13.40;99.90;;;;;;5126127;27;20030;-52
2023/04/30 09:33:52;;;;;;;10.88;3.83;;;13.50;99.90;;;;;;5121369;27;20039;-51
2023/04/30 09:36:19;;;;;;;8.82;4.10;;;13.60;99.90;;;;;;5124087;27;20031;-54
2023/04/30 09:38:45;;;;;;;9.25;3.53;;;13.60;99.90;;;;;;5127978;27;20110;-56
2023/04/30 09:41:27;;;;;;;10.70;3.92;;;13.70;99.90;;;;;;5129986;27;20145;-58
2023/04/30 09:43:57;;;;;;;11.23;3.90;;;13.70;99.90;;;;;;5128254;27;20070;-57
2023/04/30 09:46:37;;;;;;;9.23;3.58;;;13.80;99.90;;;;;;5124990;27;20126;-54
2023/04/30 09:49:04;;;;;;;9.95;3.85;;;13.80;99.90;;;;;;5122624;27;20105;-56
2023/04/30 09:51:30;;;;;;;9.10;3.70;;;14.00;99.90;;;;;;5130026;27;20042;-54
2023/04/30 09:53:56;;;;;;;10.82;3.58;;;14.10;99.90;;;;;;5131147;27;20043;-52
2023/04/30 09:56:25;;;;;;;10.63;4.13;;;14.30;99.90;;;;;;5146863;27;20671;-53
2023/04/30 09:58:53;;;;;;;9.98;3.88;;;14.30;99.90;;;;;;5156312;27;20046;-54
2023/04/30 10:01:21;;;;;;;8.35;4.07;;;14.30;99.90;;;;;;5149163;27;20039;-56
2023/04/30 10:03:48;;;;;;;9.88;3.97;;;14.40;99.90;;;;;;5124717;27;20097;-54
2023/04/30 10:06:16;;;;;;;11.00;4.38;;;14.40;99.90;;;;;;5124988;27;20035;-51
2023/04/30 10:08:45;;;;;;;8.90;4.10;;;14.50;99.90;;;;;;5125540;27;20030;-54
2023/04/30 10:11:18;;;;;;;8.68;3.72;;;14.60;99.90;;;;;;5151378;27;20087;-56
2023/04/30 10:14:02;;;;;;;7.95;3.55;;;14.70;99.90;;;;;;5140900;27;20357;-55
2023/04/30 10:16:50;;;;;;;9.75;4.43;;;14.70;99.90;;;;;;5147205;27;20234;-51
2023/04/30 10:19:23;;;;;;;12.98;4.15;;;14.60;99.90;;;;;;5143018;27;20046;-55
2023/04/30 10:21:50;;;;;;;8.07;3.70;;;14.60;99.90;;;;;;5150068;27;20600;-60
2023/04/30 10:24:18;;;;;;;8.13;4.20;;;14.70;99.90;;;;;;5154882;27;20094;-57
2023/04/30 10:26:46;;;;;;;8.93;3.78;;;14.80;99.90;;;;;;5141495;27;20030;-53
2023/04/30 10:29:16;;;;;;;9.63;3.72;;;14.90;99.90;;;;;;5142398;27;20038;-52
2023/04/30 10:31:51;;;;;;;6.82;3.55;;;15.00;99.90;;;;;;5148128;27;20552;-56
2023/04/30 10:34:25;;;;;;;8.48;3.83;;;15.10;99.90;;;;;;5150267;27;20038;-56
2023/04/30 10:36:58;;;;;;;8.75;3.47;;;15.20;99.90;;;;;;5146065;27;20041;-53
2023/04/30 10:39:26;;;;;;;9.15;3.65;;;15.20;99.90;;;;;;5150579;27;20026;-57
2023/04/30 10:42:03;;;;;;;10.18;3.83;;;15.10;99.90;;;;;;5142973;27;20030;-53
2023/04/30 10:44:40;;;;;;;8.35;3.80;;;15.10;99.90;;;;;;5122894;27;20165;-55
2023/04/30 10:47:07;;;;;;;9.27;4.10;;;15.10;99.90;;;;;;5137902;27;20517;-58
2023/04/30 10:49:33;;;;;;;9.55;3.35;;;15.10;99.90;;;;;;5113348;27;20023;-56
2023/04/30 10:52:02;;;;;;;7.85;3.70;;;15.20;99.90;;;;;;5143546;27;20513;-56
2023/04/30 10:54:34;;;;;;;8.88;3.28;;;15.30;99.90;;;;;;5144418;27;20393;-57
2023/04/30 10:57:11;;;;;;;10.52;3.25;;;15.50;99.90;;;;;;5146587;27;20105;-57
2023/04/30 10:59:37;;;;;;;6.70;3.20;;;15.40;99.90;;;;;;5145165;27;20035;-53
2023/04/30 11:02:03;;;;;;;9.10;2.97;;;15.50;99.90;;;;;;5146737;27;20040;-52
2023/04/30 11:04:29;;;;;;;8.10;3.35;;;15.50;99.90;;;;;;5148447;27;20030;-56
2023/04/30 11:07:06;;;;;;;8.50;3.40;;;15.60;99.90;;;;;;5150433;27;20038;-56
2023/04/30 11:09:36;;;;;;;11.68;3.28;;;15.70;99.90;;;;;;5152389;27;20027;-56
2023/04/30 11:12:11;;;;;;;7.25;3.03;;;15.90;99.90;;;;;;5150606;27;20030;-56
2023/04/30 11:14:43;;;;;;;7.85;3.20;;;16.20;99.90;;;;;;5137128;27;20034;-57
2023/04/30 11:17:10;;;;;;;8.23;3.47;;;16.40;99.90;;;;;;5146651;27;20041;-56
2023/04/30 11:19:45;;;;;;;8.73;3.22;;;16.60;99.90;;;;;;5143747;27;20927;-55
2023/04/30 11:22:14;;;;;;;8.15;2.92;;;16.70;99.90;;;;;;5145323;27;20019;-58
2023/04/30 11:24:58;;;;;;;9.73;3.20;;;16.90;99.90;;;;;;5145439;27;20474;-56
2023/04/30 11:27:29;;;;;;;7.50;3.13;;;17.00;99.90;;;;;;5139161;27;20042;-55
2023/04/30 11:29:57;;;;;;;8.60;2.95;;;17.00;99.90;;;;;;5142129;27;20108;-55
2023/04/30 11:32:25;;;;;;;7.80;2.78;;;17.30;99.90;;;;;;5139038;27;20034;-55
2023/04/30 11:34:52;;;;;;;7.70;2.92;;;17.40;99.90;;;;;;5142725;27;20057;-56
2023/04/30 11:37:28;;;;;;;7.03;2.38;;;17.50;99.90;;;;;;5120577;27;20145;-53
2023/04/30 11:39:56;;;;;;;6.63;2.72;;;17.60;99.90;;;;;;5141881;27;20485;-53
2023/04/30 11:42:22;;;;;;;5.93;2.45;;;17.70;99.90;;;;;;5105231;27;20501;-54
2023/04/30 11:44:47;;;;;;;8.90;2.72;;;17.80;99.90;;;;;;5139561;27;20035;-53
2023/04/30 11:47:14;;;;;;;7.00;2.40;;;17.70;99.90;;;;;;5119381;27;20037;-55
2023/04/30 11:49:40;;;;;;;7.95;2.33;;;17.80;99.90;;;;;;5137235;27;20109;-53
2023/04/30 11:52:08;;;;;;;6.47;2.10;;;17.90;99.90;;;;;;5140311;27;20038;-56
2023/04/30 11:54:37;;;;;;;8.05;2.42;;;18.10;99.90;;;;;;5139501;27;20381;-55
2023/04/30 11:57:03;;;;;;;9.48;2.72;;;18.20;99.90;;;;;;5143114;27;20561;-54
2023/04/30 11:59:30;;;;;;;7.50;2.35;;;18.30;99.90;;;;;;5138799;27;20046;-56
2023/04/30 12:01:57;;;;;;;6.38;2.00;;;18.30;99.90;;;;;;5142178;27;20550;-53
2023/04/30 12:04:23;;;;;;;6.65;2.08;;;18.30;99.90;;;;;;5145775;27;20083;-53
2023/04/30 12:06:49;;;;;;;8.52;2.10;;;18.40;99.90;;;;;;5141634;27;20496;-55
2023/04/30 12:09:14;;;;;;;6.82;2.53;;;18.40;99.90;;;;;;5144056;27;20022;-55
2023/04/30 12:11:40;;;;;;;6.15;2.40;;;18.50;99.90;;;;;;5143957;27;20938;-57
2023/04/30 12:14:11;;;;;;;5.97;2.05;;;18.60;99.90;;;;;;5141070;27;20136;-52
2023/04/30 12:16:49;;;;;;;6.10;2.08;;;18.60;99.90;;;;;;5138328;27;20382;-57
2023/04/30 12:19:16;;;;;;;4.63;1.75;;;18.80;99.90;;;;;;5143616;27;20030;-56
2023/04/30 12:21:45;;;;;;;5.22;2.20;;;19.00;99.90;;;;;;5137256;27;20632;-54
2023/04/30 12:24:11;;;;;;;6.47;2.63;;;19.00;99.90;;;;;;5140984;27;20070;-55
2023/04/30 12:26:38;;;;;;;7.00;2.50;;;19.10;99.90;;;;;;5146747;27;20443;-56
2023/04/30 12:29:09;;;;;;;7.65;2.08;;;19.20;99.90;;;;;;5147270;27;20039;-56
2023/04/30 12:31:36;;;;;;;7.10;2.28;;;19.30;99.90;;;;;;5123323;27;20042;-56
2023/04/30 12:34:07;;;;;;;5.78;1.95;;;19.40;99.90;;;;;;5148219;27;20029;-53
2023/04/30 12:36:35;;;;;;;7.13;2.15;;;19.50;99.90;;;;;;5140866;27;20070;-54
2023/04/30 12:39:09;;;;;;;7.32;2.47;;;19.70;99.90;;;;;;5146076;27;20105;-57
2023/04/30 12:41:45;;;;;;;5.85;2.60;;;19.50;99.90;;;;;;5124933;27;20080;-56
2023/04/30 12:44:23;;;;;;;8.38;2.40;;;19.50;99.90;;;;;;5124567;27;20034;-55
2023/04/30 12:46:52;;;;;;;8.02;2.30;;;19.50;99.90;;;;;;5146656;27;20087;-54
2023/04/30 12:49:28;;;;;;;6.35;2.30;;;19.70;99.90;;;;;;5145825;27;20103;-56